Time;durP1;ratioP1;P1;durP2;ratioP2;P2;SDS_P1;SDS_P2;PMS_P1;PMS_P2;Temp;Humidity;BMP_temperature;BMP_pressure;BME280_temperature;BME280_humidity;BME280_pressure;Samples;Min_cycle;Max_cycle;Signal;HPM_P1;HPM_P2
2023/05/24 00:01:09;;;;;;;18.83;3.75;;;;;;;-143.48;87.19;118439.88;5054445;28;20021;-33
2023/05/24 00:03:38;;;;;;;15.77;3.35;;;;;;;-143.48;87.75;118439.88;5054352;28;20044;-32
2023/05/24 00:06:05;;;;;;;19.70;3.85;;;;;;;-143.48;86.67;118439.88;5054618;28;20025;-33
2023/05/24 00:08:31;;;;;;;17.40;3.22;;;;;;;-143.48;86.95;118439.88;5054284;28;20017;-33
2023/05/24 00:10:56;;;;;;;14.68;3.13;;;;;;;-143.48;87.10;118439.88;5054307;28;20070;-32
2023/05/24 00:13:21;;;;;;;11.23;2.88;;;;;;;-143.48;87.34;118439.88;5054422;28;20029;-33
2023/05/24 00:15:47;;;;;;;14.55;2.97;;;;;;;-143.48;88.07;118439.88;5054186;28;20049;-32
2023/05/24 00:18:12;;;;;;;19.35;3.55;;;;;;;-143.48;87.44;118439.88;5054915;28;20047;-32
2023/05/24 00:20:37;;;;;;;16.70;2.92;;;;;;;-143.48;87.48;118439.88;5054658;28;20028;-32
2023/05/24 00:23:02;;;;;;;15.55;3.28;;;;;;;-143.48;88.31;118439.88;5054140;28;20376;-33
2023/05/24 00:25:28;;;;;;;15.18;3.55;;;;;;;-143.48;87.42;118439.88;5054196;28;20036;-32
2023/05/24 00:27:53;;;;;;;22.50;3.38;;;;;;;-143.48;88.17;118439.88;5054270;28;20013;-33
2023/05/24 00:30:18;;;;;;;15.48;3.33;;;;;;;-143.48;88.04;118439.88;5054040;28;20432;-33
2023/05/24 00:32:44;;;;;;;18.35;3.42;;;;;;;-143.48;88.32;118439.88;5054046;28;20103;-33
2023/05/24 00:35:09;;;;;;;16.38;3.17;;;;;;;-143.48;88.17;118439.88;5053785;28;20463;-33
2023/05/24 00:37:36;;;;;;;14.75;3.60;;;;;;;-143.48;88.30;118439.88;5053718;28;20025;-33
2023/05/24 00:40:01;;;;;;;15.10;2.90;;;;;;;-143.48;89.06;118439.88;5054092;28;20029;-33
2023/05/24 00:42:26;;;;;;;16.60;3.38;;;;;;;-143.48;89.22;118439.88;5054052;28;20427;-33
2023/05/24 00:44:52;;;;;;;18.73;3.45;;;;;;;-143.48;88.38;118439.88;5053754;28;20024;-33
2023/05/24 00:47:17;;;;;;;15.10;2.90;;;;;;;-143.48;88.61;118439.88;5053594;28;20043;-32
2023/05/24 00:49:43;;;;;;;16.23;3.70;;;;;;;-143.48;88.12;118439.88;5054146;28;20025;-33
2023/05/24 00:52:08;;;;;;;14.90;2.95;;;;;;;-143.48;88.99;118439.88;5053855;28;20519;-33
2023/05/24 00:54:34;;;;;;;17.30;3.80;;;;;;;-143.48;89.15;118439.88;5053552;28;20472;-33
2023/05/24 00:56:59;;;;;;;14.43;4.75;;;;;;;-143.48;88.27;118439.88;5053723;28;20031;-33
2023/05/24 00:59:26;;;;;;;19.08;3.97;;;;;;;-143.48;88.56;118439.88;5053728;28;20021;-32
2023/05/24 01:01:51;;;;;;;17.88;3.53;;;;;;;-143.48;88.40;118439.88;5053729;28;20020;-33
2023/05/24 01:04:19;;;;;;;26.30;4.13;;;;;;;-143.48;88.89;118439.88;5053704;28;20468;-32
2023/05/24 01:07:36;;;;;;;16.52;3.38;;;;;;;-143.48;88.87;118439.88;5053743;28;20146;-33
2023/05/24 01:10:24;;;;;;;13.70;3.60;;;;;;;-143.48;89.33;118439.88;4991966;28;20105;-33
2023/05/24 01:12:58;;;;;;;19.90;3.15;;;;;;;-143.48;89.52;118439.88;4992009;28;20538;-32
2023/05/24 01:15:37;;;;;;;18.13;3.33;;;;;;;-143.48;89.23;118439.88;5038928;28;20053;-32
2023/05/24 01:18:07;;;;;;;20.20;3.33;;;;;;;-143.48;88.43;118439.88;5053727;28;20494;-33
2023/05/24 01:20:36;;;;;;;18.38;3.17;;;;;;;-143.48;88.84;118439.88;5053138;28;20052;-32
2023/05/24 01:23:05;;;;;;;15.50;3.40;;;;;;;-143.48;89.46;118439.88;5052755;28;20032;-33
2023/05/24 01:25:59;;;;;;;19.98;3.63;;;;;;;-143.48;89.17;118439.88;5053473;28;20116;-33
2023/05/24 01:28:26;;;;;;;20.40;3.50;;;;;;;-143.48;88.87;118439.88;5053343;28;20025;-32
2023/05/24 01:30:52;;;;;;;15.13;3.60;;;;;;;-143.48;89.72;118439.88;5053319;28;20024;-33
2023/05/24 01:33:17;;;;;;;19.38;3.72;;;;;;;-143.48;89.21;118439.88;5052968;28;20032;-32
2023/05/24 01:35:42;;;;;;;21.58;3.88;;;;;;;-143.48;89.49;118439.88;5053664;28;20028;-33
2023/05/24 01:38:11;;;;;;;17.35;3.38;;;;;;;-143.48;89.44;118439.88;5053242;28;20053;-32
2023/05/24 01:40:37;;;;;;;19.10;3.90;;;;;;;-143.48;89.14;118439.88;5053272;28;20037;-32
2023/05/24 01:43:17;;;;;;;24.20;4.25;;;;;;;-143.48;88.99;118439.88;5053184;28;20108;-32
2023/05/24 01:45:57;;;;;;;16.35;3.58;;;;;;;-143.48;88.99;118439.88;5053475;28;20082;-33
2023/05/24 01:48:55;;;;;;;18.65;3.28;;;;;;;-143.48;88.83;118439.88;5052990;28;20021;-33
2023/05/24 01:51:27;;;;;;;18.10;3.70;;;;;;;-143.48;89.44;118439.88;5053414;28;20025;-32
2023/05/24 01:53:56;;;;;;;20.83;3.55;;;;;;;-143.48;90.10;118439.88;5053094;28;20104;-32
2023/05/24 01:56:22;;;;;;;20.45;3.35;;;;;;;-143.48;90.69;118439.88;5052849;28;20352;-32
2023/05/24 01:58:51;;;;;;;24.02;3.75;;;;;;;-143.48;91.49;118439.88;5053073;28;20017;-32
2023/05/24 02:01:16;;;;;;;26.00;4.53;;;;;;;-143.48;91.15;118439.88;5053050;28;20036;-32
2023/05/24 02:03:42;;;;;;;21.15;3.90;;;;;;;-143.48;90.60;118439.88;5052699;28;20380;-33
2023/05/24 02:06:07;;;;;;;22.42;3.97;;;;;;;-143.48;91.28;118439.88;5051050;28;20119;-33
2023/05/24 02:08:32;;;;;;;17.95;3.83;;;;;;;-143.48;91.38;118439.88;5051921;28;20096;-33
2023/05/24 02:10:58;;;;;;;41.08;6.03;;;;;;;-143.48;91.65;118439.88;5052272;28;20430;-33
2023/05/24 02:13:23;;;;;;;15.82;3.40;;;;;;;-143.48;91.29;118439.88;5052207;28;20108;-33
2023/05/24 02:15:50;;;;;;;17.10;3.75;;;;;;;-143.48;91.67;118439.88;5051855;28;20044;-32
2023/05/24 02:18:17;;;;;;;18.25;3.47;;;;;;;-143.48;91.66;118439.88;5050644;28;20032;-33
2023/05/24 02:20:42;;;;;;;20.00;3.50;;;;;;;-143.48;91.63;118439.88;5050853;28;20044;-32
2023/05/24 02:23:08;;;;;;;20.08;3.70;;;;;;;-143.48;90.92;118439.88;5052345;28;20021;-33
2023/05/24 02:25:33;;;;;;;19.25;3.67;;;;;;;-143.48;90.63;118439.88;5052553;28;20017;-32
2023/05/24 02:27:58;;;;;;;12.85;3.60;;;;;;;-143.48;90.97;118439.88;5052574;28;20023;-32
2023/05/24 02:30:24;;;;;;;20.08;4.00;;;;;;;-143.48;90.87;118439.88;5052843;28;20471;-32
2023/05/24 02:32:49;;;;;;;25.77;3.67;;;;;;;-143.48;91.00;118439.88;5052499;28;20474;-32
2023/05/24 02:35:15;;;;;;;20.17;3.67;;;;;;;-143.48;90.96;118439.88;5055931;28;20470;-32
2023/05/24 02:37:40;;;;;;;26.55;4.03;;;;;;;-143.48;91.95;118439.88;5038442;28;20032;-32
2023/05/24 02:40:06;;;;;;;17.38;3.55;;;;;;;-143.48;92.29;118439.88;5055976;28;20523;-33
2023/05/24 02:42:32;;;;;;;20.67;4.40;;;;;;;-143.48;93.14;118439.88;5055374;28;20082;-32
2023/05/24 02:44:57;;;;;;;23.48;3.60;;;;;;;-143.48;93.69;118439.88;5053782;28;20368;-33
2023/05/24 02:47:22;;;;;;;15.95;3.38;;;;;;;-143.48;92.30;118439.88;5053729;28;20056;-33
2023/05/24 02:49:48;;;;;;;20.92;3.90;;;;;;;-143.48;92.26;118439.88;5053922;28;20140;-32
2023/05/24 02:52:14;;;;;;;22.17;3.95;;;;;;;-143.48;92.58;118439.88;5054094;28;20707;-33
2023/05/24 02:54:40;;;;;;;18.85;4.45;;;;;;;-143.48;93.56;118439.88;5054139;28;20025;-33
2023/05/24 02:57:05;;;;;;;20.80;4.07;;;;;;;-143.48;93.91;118439.88;5053751;28;20215;-32
2023/05/24 02:59:32;;;;;;;22.45;4.57;;;;;;;-143.48;94.13;118439.88;5055203;28;20017;-32
2023/05/24 03:01:57;;;;;;;20.95;3.97;;;;;;;-143.48;94.11;118439.88;5055920;28;20041;-33
2023/05/24 03:04:23;;;;;;;22.40;3.90;;;;;;;-143.48;93.99;118439.88;5055625;28;20028;-32
2023/05/24 03:06:48;;;;;;;23.17;3.88;;;;;;;-143.48;94.67;118439.88;5056042;28;20021;-33
2023/05/24 03:09:15;;;;;;;21.15;4.00;;;;;;;-143.48;94.25;118439.88;5055694;28;20025;-32
2023/05/24 03:11:40;;;;;;;18.65;3.90;;;;;;;-143.48;93.97;118439.88;5037573;28;20025;-33
2023/05/24 03:14:08;;;;;;;20.27;4.13;;;;;;;-143.48;93.22;118439.88;5055368;28;20536;-33
2023/05/24 03:16:34;;;;;;;16.92;3.53;;;;;;;-143.48;92.78;118439.88;5055269;28;20440;-33
2023/05/24 03:18:59;;;;;;;19.33;3.67;;;;;;;-143.48;93.07;118439.88;5055312;28;20017;-32
2023/05/24 03:21:25;;;;;;;16.92;4.05;;;;;;;-143.48;92.99;118439.88;5055457;28;20025;-33
2023/05/24 03:23:50;;;;;;;18.10;4.00;;;;;;;-143.48;93.01;118439.88;5055476;28;20024;-32
2023/05/24 03:26:17;;;;;;;15.50;3.63;;;;;;;-143.48;93.66;118439.88;5055715;28;20047;-32
2023/05/24 03:28:43;;;;;;;17.45;4.13;;;;;;;-143.48;92.94;118439.88;5055897;28;20017;-33
2023/05/24 03:31:08;;;;;;;15.27;4.63;;;;;;;-143.48;92.37;118439.88;5054916;28;20040;-32
2023/05/24 03:33:33;;;;;;;17.95;4.35;;;;;;;-143.48;93.67;118439.88;5055472;28;20035;-32
2023/05/24 03:35:59;;;;;;;21.75;4.55;;;;;;;-143.48;93.61;118439.88;5055243;28;20487;-32
2023/05/24 03:38:24;;;;;;;17.63;4.00;;;;;;;-143.48;93.38;118439.88;5054924;28;20399;-32
2023/05/24 03:40:50;;;;;;;20.08;4.15;;;;;;;-143.48;93.74;118439.88;5055153;28;20021;-32
2023/05/24 03:43:16;;;;;;;19.67;4.15;;;;;;;-143.48;93.97;118439.88;5054748;28;20029;-33
2023/05/24 03:45:41;;;;;;;21.02;4.18;;;;;;;-143.48;94.40;118439.88;5054354;28;20025;-33
2023/05/24 03:48:07;;;;;;;18.40;4.68;;;;;;;-143.48;95.91;118439.88;5055036;28;20067;-33
2023/05/24 03:50:32;;;;;;;18.73;4.72;;;;;;;-143.48;95.97;118439.88;5054966;28;20467;-33
2023/05/24 03:52:58;;;;;;;19.52;4.80;;;;;;;-143.48;95.75;118439.88;5055119;28;20021;-32
2023/05/24 03:55:23;;;;;;;25.20;4.93;;;;;;;-143.48;95.79;118439.88;5054908;28;20334;-32
2023/05/24 03:57:48;;;;;;;26.48;5.22;;;;;;;-143.48;95.48;118439.88;5054802;28;20363;-32
2023/05/24 04:00:14;;;;;;;24.05;5.28;;;;;;;-143.48;94.93;118439.88;5054507;28;20041;-34
2023/05/24 04:02:40;;;;;;;25.92;5.65;;;;;;;-143.48;94.59;118439.88;5054630;28;20551;-32
2023/05/24 04:05:09;;;;;;;24.83;5.15;;;;;;;-143.48;94.48;118439.88;5054385;28;20048;-33
2023/05/24 04:07:38;;;;;;;20.95;4.90;;;;;;;-143.48;94.09;118439.88;5054652;28;20084;-32
2023/05/24 04:10:05;;;;;;;19.10;5.07;;;;;;;-143.48;94.28;118439.88;5054623;28;20059;-32
2023/05/24 04:12:31;;;;;;;29.50;5.60;;;;;;;-143.48;93.92;118439.88;5054567;28;20056;-33
2023/05/24 04:14:57;;;;;;;23.63;4.78;;;;;;;-143.48;93.51;118439.88;5054031;28;20052;-32
2023/05/24 04:17:23;;;;;;;26.05;5.32;;;;;;;-143.48;94.00;118439.88;5054880;28;20037;-32
2023/05/24 04:19:50;;;;;;;26.13;5.43;;;;;;;-143.48;93.80;118439.88;5054142;28;20035;-33
2023/05/24 04:22:17;;;;;;;19.60;4.70;;;;;;;-143.48;93.48;118439.88;5054263;28;20021;-33
2023/05/24 04:24:42;;;;;;;20.83;5.10;;;;;;;-143.48;94.32;118439.88;5053993;28;20056;-32
2023/05/24 04:27:08;;;;;;;25.90;4.53;;;;;;;-143.48;93.65;118439.88;5054458;28;20017;-33
2023/05/24 04:29:34;;;;;;;24.88;5.43;;;;;;;-143.48;93.55;118439.88;5053913;28;20017;-33
2023/05/24 04:31:59;;;;;;;21.27;4.75;;;;;;;-143.48;93.04;118439.88;5054112;28;20043;-33
2023/05/24 04:34:25;;;;;;;18.83;4.60;;;;;;;-143.48;93.16;118439.88;5053764;28;20096;-32
2023/05/24 04:36:51;;;;;;;23.77;5.13;;;;;;;-143.48;92.62;118439.88;5053720;28;20535;-32
2023/05/24 04:39:17;;;;;;;17.95;4.38;;;;;;;-143.48;91.64;118439.88;5053835;28;20116;-33
2023/05/24 04:41:44;;;;;;;17.23;4.43;;;;;;;-143.48;91.90;118439.88;5054072;28;20052;-32
2023/05/24 04:44:09;;;;;;;22.30;4.57;;;;;;;-143.48;90.75;118439.88;5054249;28;20025;-33
2023/05/24 04:46:34;;;;;;;30.50;5.65;;;;;;;-143.48;91.44;118439.88;5035754;28;20158;-32
2023/05/24 04:49:01;;;;;;;17.15;5.07;;;;;;;-143.48;90.43;118439.88;5053536;28;20025;-33
2023/05/24 04:51:26;;;;;;;17.48;5.25;;;;;;;-143.48;90.23;118439.88;5053951;28;20032;-32
2023/05/24 04:53:51;;;;;;;23.25;4.80;;;;;;;-143.48;90.11;118439.88;5053575;28;20024;-32
2023/05/24 04:56:18;;;;;;;21.42;5.10;;;;;;;-143.48;89.56;118439.88;5054019;28;20032;-32
2023/05/24 04:58:43;;;;;;;26.15;5.10;;;;;;;-143.48;90.37;118439.88;5052888;28;20032;-32
2023/05/24 05:01:08;;;;;;;23.63;5.53;;;;;;;-143.48;89.18;118439.88;5053419;28;20017;-33
2023/05/24 05:03:34;;;;;;;24.05;5.38;;;;;;;-143.48;89.73;118439.88;5053473;28;20024;-32
2023/05/24 05:05:59;;;;;;;23.98;4.93;;;;;;;-143.48;88.76;118439.88;5053613;28;20071;-32
2023/05/24 05:08:25;;;;;;;23.45;4.90;;;;;;;-143.48;87.80;118439.88;5053675;28;20044;-32
2023/05/24 05:10:50;;;;;;;20.80;5.00;;;;;;;-143.48;88.07;118439.88;5053831;28;20029;-33
2023/05/24 05:13:15;;;;;;;20.17;4.55;;;;;;;-143.48;88.17;118439.88;5053344;28;20383;-32
2023/05/24 05:15:41;;;;;;;21.92;5.32;;;;;;;-143.48;88.35;118439.88;5035202;28;20488;-33
2023/05/24 05:18:07;;;;;;;21.77;5.35;;;;;;;-143.48;87.54;118439.88;5053210;28;20029;-32
2023/05/24 05:20:32;;;;;;;22.98;5.15;;;;;;;-143.48;86.17;118439.88;5053456;28;20032;-32
2023/05/24 05:22:57;;;;;;;22.83;5.00;;;;;;;-143.48;86.47;118439.88;5053329;28;20021;-32
2023/05/24 05:25:23;;;;;;;26.00;5.30;;;;;;;-143.48;85.70;118439.88;5053103;28;20053;-33
2023/05/24 05:27:48;;;;;;;19.23;4.60;;;;;;;-143.48;84.45;118439.88;5053114;28;20389;-33
2023/05/24 05:30:13;;;;;;;22.08;5.18;;;;;;;-143.48;85.47;118439.88;5053394;28;20025;-33
2023/05/24 05:32:39;;;;;;;25.23;5.28;;;;;;;-143.48;83.93;118439.88;5053335;28;20032;-33
2023/05/24 05:35:05;;;;;;;24.90;5.68;;;;;;;-143.48;84.02;118439.88;5053237;28;20021;-33
2023/05/24 05:37:30;;;;;;;24.48;5.57;;;;;;;-143.48;83.88;118439.88;5052843;28;20025;-33
2023/05/24 05:39:55;;;;;;;20.38;5.30;;;;;;;-143.48;84.58;118439.88;5053268;28;20342;-33
2023/05/24 05:42:21;;;;;;;20.10;4.82;;;;;;;-143.48;83.45;118439.88;5052762;28;20536;-33
2023/05/24 05:44:46;;;;;;;22.73;4.57;;;;;;;-143.48;83.12;118439.88;5053208;28;20053;-32
2023/05/24 05:47:11;;;;;;;19.45;4.60;;;;;;;-143.48;81.86;118439.88;5053277;28;20107;-33
2023/05/24 05:49:37;;;;;;;18.38;4.55;;;;;;;-143.48;78.54;118439.88;5053209;28;20402;-33
2023/05/24 05:52:04;;;;;;;21.88;5.10;;;;;;;-143.48;69.61;118439.88;5053236;28;20472;-33
2023/05/24 05:54:30;;;;;;;22.33;4.50;;;;;;;-143.48;78.51;118439.88;5052643;28;20035;-33
2023/05/24 05:56:55;;;;;;;16.08;4.15;;;;;;;-143.48;76.28;118439.88;5052998;28;20017;-33
2023/05/24 05:59:20;;;;;;;19.77;4.75;;;;;;;-143.48;78.29;118439.88;5052738;28;20080;-33
2023/05/24 06:01:47;;;;;;;23.50;4.40;;;;;;;-143.48;76.50;118439.88;5052828;28;20025;-33
2023/05/24 06:04:13;;;;;;;21.50;4.50;;;;;;;-143.48;69.13;118439.88;5053044;28;20029;-33
2023/05/24 06:06:38;;;;;;;19.60;3.85;;;;;;;-143.48;70.50;118439.88;5052620;28;20032;-33
2023/05/24 06:09:04;;;;;;;21.00;3.75;;;;;;;-143.48;66.21;118439.88;5054159;28;20024;-33
2023/05/24 06:11:29;;;;;;;22.08;3.42;;;;;;;-143.48;70.42;118439.88;5056446;28;20035;-33
2023/05/24 06:13:55;;;;;;;19.13;3.58;;;;;;;-143.48;72.69;118439.88;5056119;28;20017;-33
2023/05/24 06:16:20;;;;;;;21.50;3.50;;;;;;;-143.48;70.89;118439.88;5055620;28;20487;-33
2023/05/24 06:18:46;;;;;;;17.08;3.50;;;;;;;-143.48;67.39;118439.88;5056641;28;20025;-33
2023/05/24 06:21:13;;;;;;;17.02;3.67;;;;;;;-143.48;66.22;118439.88;5055248;28;20048;-33
2023/05/24 06:23:38;;;;;;;17.80;3.40;;;;;;;-143.48;60.28;118439.88;5056410;28;20041;-40
2023/05/24 06:26:05;;;;;;;13.98;2.90;;;;;;;-143.48;62.40;118439.88;5055150;28;20522;-33
2023/05/24 06:28:31;;;;;;;15.25;3.28;;;;;;;-143.48;56.43;118439.88;5054237;28;20017;-33
2023/05/24 06:30:56;;;;;;;18.58;3.67;;;;;;;-143.48;63.75;118439.88;5054364;28;20108;-33
2023/05/24 06:33:22;;;;;;;17.45;3.38;;;;;;;-143.48;55.49;118439.88;5054136;28;20024;-33
2023/05/24 06:35:47;;;;;;;16.52;3.50;;;;;;;-143.48;53.87;118439.88;5053989;28;20056;-33
2023/05/24 06:38:13;;;;;;;14.00;3.13;;;;;;;-143.48;58.37;118439.88;5053827;28;20029;-33
2023/05/24 06:40:38;;;;;;;14.77;3.28;;;;;;;-143.48;50.02;118439.88;5054284;28;20475;-33
2023/05/24 06:43:04;;;;;;;17.83;3.13;;;;;;;-143.48;50.32;118439.88;5056314;28;20029;-33
2023/05/24 06:45:30;;;;;;;14.25;3.30;;;;;;;-143.48;50.57;118439.88;5056697;28;20391;-33
2023/05/24 06:47:55;;;;;;;21.63;3.30;;;;;;;-143.48;49.76;118439.88;5056091;28;20352;-33
2023/05/24 06:50:21;;;;;;;15.07;3.20;;;;;;;-143.48;48.06;118439.88;5055845;28;20017;-33
2023/05/24 06:52:46;;;;;;;15.23;3.35;;;;;;;-143.48;45.29;118439.88;5055944;28;20543;-33
2023/05/24 06:55:11;;;;;;;14.77;3.30;;;;;;;-143.48;45.23;118439.88;5055718;28;20028;-33
2023/05/24 06:57:37;;;;;;;18.98;3.50;;;;;;;-143.48;46.56;118439.88;5055813;28;20021;-33
2023/05/24 07:00:07;;;;;;;14.15;3.05;;;;;;;-143.48;46.44;118439.88;5055483;28;20376;-33
2023/05/24 07:02:32;;;;;;;13.10;2.80;;;;;;;-143.48;45.83;118439.88;5055813;28;20057;-33
2023/05/24 07:04:58;;;;;;;13.18;3.28;;;;;;;-143.48;46.64;118439.88;5055759;28;20545;-34
2023/05/24 07:07:23;;;;;;;14.52;3.42;;;;;;;-143.48;47.83;118439.88;5055513;28;20124;-33
2023/05/24 07:09:48;;;;;;;14.55;3.28;;;;;;;-143.48;47.89;118439.88;5055704;28;20032;-33
2023/05/24 07:12:14;;;;;;;14.85;3.38;;;;;;;-143.48;47.64;118439.88;5055634;28;20024;-33
2023/05/24 07:14:39;;;;;;;13.80;3.10;;;;;;;-143.48;47.27;118439.88;5055521;28;20440;-33
2023/05/24 07:17:04;;;;;;;17.35;3.08;;;;;;;-143.48;46.28;118439.88;5055310;28;20025;-33
2023/05/24 07:19:32;;;;;;;14.70;3.58;;;;;;;-143.48;47.51;118439.88;5055193;28;20426;-33
2023/05/24 07:21:57;;;;;;;15.90;3.45;;;;;;;-143.48;47.57;118439.88;5054638;28;20468;-33
2023/05/24 07:24:23;;;;;;;17.45;3.90;;;;;;;-143.48;48.50;118439.88;5055492;28;20031;-34
2023/05/24 07:26:49;;;;;;;14.10;3.20;;;;;;;-143.48;48.32;118439.88;5055223;28;20032;-34
2023/05/24 07:29:14;;;;;;;15.95;3.15;;;;;;;-143.48;50.44;118439.88;5055139;28;20021;-33
2023/05/24 07:31:40;;;;;;;19.95;3.83;;;;;;;-143.48;47.73;118439.88;5055066;28;20021;-33
2023/05/24 07:34:05;;;;;;;20.10;3.72;;;;;;;-143.48;47.60;118439.88;5054728;28;20025;-33
2023/05/24 07:36:32;;;;;;;14.90;3.22;;;;;;;-143.48;48.16;118439.88;5055258;28;20063;-34
2023/05/24 07:38:58;;;;;;;19.30;3.60;;;;;;;-143.48;48.99;118439.88;5036916;28;20369;-32
2023/05/24 07:41:26;;;;;;;11.70;3.03;;;;;;;-143.48;49.75;118439.88;5055092;28;20025;-32
2023/05/24 07:43:55;;;;;;;13.93;3.30;;;;;;;-143.48;49.64;118439.88;5054792;28;20025;-31
2023/05/24 07:46:20;;;;;;;14.55;3.17;;;;;;;-143.48;48.30;118439.88;5055155;28;20100;-33
2023/05/24 07:48:46;;;;;;;10.10;3.30;;;;;;;-143.48;46.77;118439.88;5054749;28;20052;-32
2023/05/24 07:51:11;;;;;;;15.70;3.33;;;;;;;-143.48;48.08;118439.88;5054486;28;20059;-32
2023/05/24 07:53:36;;;;;;;12.90;3.35;;;;;;;-143.48;46.41;118439.88;5055194;28;20036;-32
2023/05/24 07:56:02;;;;;;;12.63;3.08;;;;;;;-143.48;49.25;118439.88;5055076;28;20048;-32
2023/05/24 07:58:28;;;;;;;15.95;3.63;;;;;;;-143.48;46.68;118439.88;5054798;28;20033;-31
2023/05/24 08:00:53;;;;;;;17.00;3.15;;;;;;;-143.48;44.65;118439.88;5054482;28;20039;-32
2023/05/24 08:03:18;;;;;;;19.17;3.90;;;;;;;-143.48;44.33;118439.88;5054694;28;20032;-33
2023/05/24 08:05:43;;;;;;;14.55;3.53;;;;;;;-143.48;46.97;118439.88;5054619;28;20025;-33
2023/05/24 08:08:09;;;;;;;15.93;3.25;;;;;;;-143.48;47.77;118439.88;5054360;28;20352;-33
2023/05/24 08:10:34;;;;;;;15.35;3.38;;;;;;;-143.48;48.03;118439.88;5054298;28;20109;-33
2023/05/24 08:13:00;;;;;;;14.27;3.30;;;;;;;-143.48;43.76;118439.88;5054526;28;20025;-32
2023/05/24 08:15:25;;;;;;;17.00;3.70;;;;;;;-143.48;45.85;118439.88;5054098;28;20036;-32
2023/05/24 08:17:50;;;;;;;16.85;3.10;;;;;;;-143.48;43.26;118439.88;5054044;28;20474;-33
2023/05/24 08:20:16;;;;;;;14.52;3.28;;;;;;;-143.48;44.08;118439.88;5054463;28;20036;-37
2023/05/24 08:22:42;;;;;;;11.75;2.92;;;;;;;-143.48;42.93;118439.88;5054379;28;20025;-33
2023/05/24 08:25:08;;;;;;;16.27;3.30;;;;;;;-143.48;47.15;118439.88;5054322;28;20063;-32
2023/05/24 08:27:34;;;;;;;14.75;3.60;;;;;;;-143.48;45.46;118439.88;5054246;28;20017;-33
2023/05/24 08:29:59;;;;;;;11.43;3.00;;;;;;;-143.48;42.22;118439.88;5054330;28;20036;-32
2023/05/24 08:32:25;;;;;;;12.90;3.10;;;;;;;-143.48;43.72;118439.88;5053553;28;20384;-32
2023/05/24 08:34:51;;;;;;;12.57;3.35;;;;;;;-143.48;41.61;118439.88;5053846;28;20468;-33
2023/05/24 08:37:21;;;;;;;9.82;2.78;;;;;;;-143.48;44.00;118439.88;5053954;28;20487;-33
2023/05/24 08:39:46;;;;;;;15.80;3.42;;;;;;;-143.48;42.59;118439.88;5053934;28;20414;-32
2023/05/24 08:42:12;;;;;;;14.40;3.10;;;;;;;-143.48;40.40;118439.88;5035786;28;20147;-33
2023/05/24 08:44:44;;;;;;;11.80;3.17;;;;;;;-143.48;40.69;118439.88;5053655;28;20028;-32
2023/05/24 08:47:11;;;;;;;11.60;3.03;;;;;;;-143.48;41.61;118439.88;5053871;28;20482;-32
2023/05/24 08:49:37;;;;;;;12.43;3.40;;;;;;;-143.48;40.39;118439.88;5053928;28;20032;-34
2023/05/24 08:52:06;;;;;;;10.85;2.72;;;;;;;-143.48;40.95;118439.88;5053314;28;20384;-33
2023/05/24 08:54:33;;;;;;;16.70;3.30;;;;;;;-143.48;42.33;118439.88;5053585;28;20043;-33
2023/05/24 08:56:59;;;;;;;14.40;3.55;;;;;;;-143.48;44.42;118439.88;5053144;28;20104;-33
2023/05/24 08:59:25;;;;;;;13.88;3.72;;;;;;;-143.48;43.68;118439.88;5053522;28;20104;-33
2023/05/24 09:01:52;;;;;;;18.05;3.50;;;;;;;-143.48;42.70;118439.88;5053269;28;20444;-33
2023/05/24 09:04:20;;;;;;;10.60;2.83;;;;;;;-143.48;40.81;118439.88;5053602;28;20056;-33
2023/05/24 09:06:46;;;;;;;15.93;3.60;;;;;;;-143.48;41.88;118439.88;5053610;28;20029;-33
2023/05/24 09:09:16;;;;;;;11.10;3.30;;;;;;;-143.48;41.73;118439.88;5053536;28;20372;-33
2023/05/24 09:11:42;;;;;;;15.52;3.38;;;;;;;-143.48;42.58;118439.88;5053606;28;20025;-33
2023/05/24 09:14:08;;;;;;;12.35;3.10;;;;;;;-143.48;41.79;118439.88;5053728;28;20032;-34
2023/05/24 09:16:34;;;;;;;14.35;3.50;;;;;;;-143.48;40.55;118439.88;5053145;28;20121;-33
2023/05/24 09:19:00;;;;;;;12.10;3.45;;;;;;;-143.48;39.55;118439.88;5053298;28;20112;-33
2023/05/24 09:21:25;;;;;;;15.70;3.35;;;;;;;-143.48;41.66;118439.88;5053469;28;20480;-34
2023/05/24 09:23:52;;;;;;;15.90;3.30;;;;;;;-143.48;41.70;118439.88;5052977;28;20032;-33
2023/05/24 09:26:17;;;;;;;11.75;3.08;;;;;;;-143.48;42.07;118439.88;5052827;28;20029;-33
2023/05/24 09:28:43;;;;;;;13.23;3.38;;;;;;;-143.48;42.95;118439.88;5053081;28;20025;-33
2023/05/24 09:31:08;;;;;;;15.85;3.55;;;;;;;-143.48;42.67;118439.88;5053029;28;20029;-33
2023/05/24 09:33:34;;;;;;;12.75;3.38;;;;;;;-143.48;41.26;118439.88;5053492;28;20104;-34
2023/05/24 09:36:03;;;;;;;11.25;3.30;;;;;;;-143.48;41.20;118439.88;5052883;28;20522;-33
2023/05/24 09:38:28;;;;;;;14.38;3.47;;;;;;;-143.48;40.13;118439.88;5052946;28;20095;-34
2023/05/24 09:41:04;;;;;;;13.25;3.20;;;;;;;-143.48;40.20;118439.88;5052981;28;20024;-34
2023/05/24 09:43:33;;;;;;;10.68;3.60;;;;;;;-143.48;42.18;118439.88;5053523;28;20037;-33
2023/05/24 09:46:02;;;;;;;11.57;3.20;;;;;;;-143.48;41.85;118439.88;5039004;28;20029;-34
2023/05/24 09:48:28;;;;;;;14.55;3.33;;;;;;;-143.48;40.71;118439.88;5039076;28;20037;-34
2023/05/24 09:51:06;;;;;;;12.57;3.20;;;;;;;-143.48;40.29;118439.88;5057765;28;20017;-34
2023/05/24 09:53:35;;;;;;;14.90;3.20;;;;;;;-143.48;39.78;118439.88;5056729;28;20111;-34
2023/05/24 09:56:02;;;;;;;11.43;3.33;;;;;;;-143.48;41.47;118439.88;5057423;28;20464;-34
2023/05/24 09:58:32;;;;;;;14.88;3.33;;;;;;;-143.48;40.84;118439.88;5057121;28;20021;-34
2023/05/24 10:01:13;;;;;;;12.40;3.28;;;;;;;-143.48;40.18;118439.88;5056950;28;20021;-34
2023/05/24 10:03:51;;;;;;;14.82;3.58;;;;;;;-143.48;39.55;118439.88;5057012;28;20117;-34
2023/05/24 10:06:17;;;;;;;12.50;2.95;;;;;;;-143.48;40.51;118439.88;5056923;28;20031;-34
2023/05/24 10:08:43;;;;;;;13.32;3.45;;;;;;;-143.48;41.55;118439.88;5056118;28;20492;-34
2023/05/24 10:11:08;;;;;;;14.02;3.42;;;;;;;-143.48;41.07;118439.88;5055895;28;20055;-33
2023/05/24 10:13:35;;;;;;;14.70;3.38;;;;;;;-143.48;41.72;118439.88;5056629;28;20406;-34
2023/05/24 10:16:02;;;;;;;12.63;3.20;;;;;;;-143.48;39.28;118439.88;5056537;28;20053;-33
2023/05/24 10:18:28;;;;;;;16.52;3.42;;;;;;;-143.48;39.20;118439.88;5056210;28;20029;-34
2023/05/24 10:20:56;;;;;;;17.23;3.15;;;;;;;-143.48;41.15;118439.88;5056484;28;20032;-34
2023/05/24 10:23:25;;;;;;;13.18;3.55;;;;;;;-143.48;39.59;118439.88;5056228;28;20029;-34
2023/05/24 10:25:57;;;;;;;11.25;3.22;;;;;;;-143.48;39.14;118439.88;5056439;28;20064;-34
2023/05/24 10:28:23;;;;;;;12.43;3.33;;;;;;;-143.48;39.55;118439.88;5056418;28;20048;-33
2023/05/24 10:30:59;;;;;;;13.45;3.65;;;;;;;-143.48;40.55;118439.88;5056690;28;20278;-33
2023/05/24 10:33:25;;;;;;;12.02;3.50;;;;;;;-143.48;40.19;118439.88;5056070;28;20108;-33
2023/05/24 10:35:52;;;;;;;14.07;3.42;;;;;;;-143.48;41.35;118439.88;5038545;28;20056;-34
2023/05/24 10:38:21;;;;;;;11.52;3.25;;;;;;;-143.48;41.06;118439.88;5056076;28;20515;-33
2023/05/24 10:40:46;;;;;;;12.65;3.10;;;;;;;-143.48;40.34;118439.88;5056097;28;20519;-34
2023/05/24 10:43:11;;;;;;;11.10;3.15;;;;;;;-143.48;38.94;118439.88;5055935;28;20150;-34
2023/05/24 10:45:39;;;;;;;17.08;3.13;;;;;;;-143.48;40.62;118439.88;5056183;28;20029;-34
2023/05/24 10:48:27;;;;;;;11.38;3.00;;;;;;;-143.48;39.08;118439.88;5055885;28;20100;-34
2023/05/24 10:50:53;;;;;;;10.10;3.00;;;;;;;-143.48;39.90;118439.88;5055593;28;20033;-33
2023/05/24 10:53:21;;;;;;;13.35;3.08;;;;;;;-143.48;40.02;118439.88;5055825;28;20032;-33
2023/05/24 10:55:56;;;;;;;14.40;3.25;;;;;;;-143.48;40.76;118439.88;5055502;28;20075;-33
2023/05/24 10:58:29;;;;;;;12.73;3.13;;;;;;;-143.48;38.42;118439.88;5055726;28;20375;-33
2023/05/24 11:00:54;;;;;;;10.88;3.10;;;;;;;-143.48;40.92;118439.88;5055555;28;20383;-33